sensor_id;sensor_type;location;lat;lon;timestamp;P1;durP1;ratioP1;P2;durP2;ratioP2
14306;SDS011;7237;49.500;11.400;2023-07-28T00:00:51;6.18;;;3.95;;
14306;SDS011;7237;49.500;11.400;2023-07-28T00:03:18;4.25;;;3.20;;
14306;SDS011;7237;49.500;11.400;2023-07-28T00:05:45;3.65;;;3.33;;
14306;SDS011;7237;49.500;11.400;2023-07-28T00:08:14;4.07;;;3.63;;
14306;SDS011;7237;49.500;11.400;2023-07-28T00:10:41;3.67;;;3.20;;
14306;SDS011;7237;49.500;11.400;2023-07-28T00:13:08;4.57;;;3.47;;
14306;SDS011;7237;49.500;11.400;2023-07-28T00:15:35;3.88;;;3.47;;
14306;SDS011;7237;49.500;11.400;2023-07-28T00:18:03;4.20;;;3.80;;
14306;SDS011;7237;49.500;11.400;2023-07-28T00:20:30;4.10;;;3.80;;
14306;SDS011;7237;49.500;11.400;2023-07-28T00:22:57;4.05;;;3.63;;
14306;SDS011;7237;49.500;11.400;2023-07-28T00:25:25;3.97;;;3.58;;
14306;SDS011;7237;49.500;11.400;2023-07-28T00:27:52;5.53;;;3.47;;
14306;SDS011;7237;49.500;11.400;2023-07-28T00:30:19;4.30;;;3.90;;
14306;SDS011;7237;49.500;11.400;2023-07-28T00:32:48;4.57;;;3.83;;
14306;SDS011;7237;49.500;11.400;2023-07-28T00:35:15;3.65;;;3.30;;
14306;SDS011;7237;49.500;11.400;2023-07-28T00:37:42;6.72;;;3.58;;
14306;SDS011;7237;49.500;11.400;2023-07-28T00:40:09;3.65;;;3.35;;
14306;SDS011;7237;49.500;11.400;2023-07-28T00:42:38;3.72;;;3.40;;
14306;SDS011;7237;49.500;11.400;2023-07-28T00:45:06;5.90;;;3.53;;
14306;SDS011;7237;49.500;11.400;2023-07-28T00:47:33;4.75;;;3.85;;
14306;SDS011;7237;49.500;11.400;2023-07-28T00:50:01;5.60;;;3.45;;
14306;SDS011;7237;49.500;11.400;2023-07-28T00:52:28;3.83;;;3.53;;
14306;SDS011;7237;49.500;11.400;2023-07-28T00:54:55;4.50;;;3.22;;
14306;SDS011;7237;49.500;11.400;2023-07-28T00:57:22;4.43;;;3.30;;
14306;SDS011;7237;49.500;11.400;2023-07-28T00:59:50;3.58;;;3.25;;
14306;SDS011;7237;49.500;11.400;2023-07-28T01:02:17;4.00;;;3.35;;
14306;SDS011;7237;49.500;11.400;2023-07-28T01:04:45;7.63;;;3.40;;
14306;SDS011;7237;49.500;11.400;2023-07-28T01:07:13;5.70;;;2.95;;
14306;SDS011;7237;49.500;11.400;2023-07-28T01:09:43;5.05;;;3.20;;
14306;SDS011;7237;49.500;11.400;2023-07-28T01:12:13;3.97;;;3.60;;
14306;SDS011;7237;49.500;11.400;2023-07-28T01:14:40;5.80;;;3.13;;
14306;SDS011;7237;49.500;11.400;2023-07-28T01:17:08;3.63;;;3.33;;
14306;SDS011;7237;49.500;11.400;2023-07-28T01:19:36;5.22;;;3.75;;
14306;SDS011;7237;49.500;11.400;2023-07-28T01:22:07;3.88;;;3.58;;
14306;SDS011;7237;49.500;11.400;2023-07-28T01:24:41;3.47;;;3.17;;
14306;SDS011;7237;49.500;11.400;2023-07-28T01:27:10;3.80;;;3.50;;
14306;SDS011;7237;49.500;11.400;2023-07-28T01:29:37;3.70;;;3.40;;
14306;SDS011;7237;49.500;11.400;2023-07-28T01:32:05;4.15;;;3.08;;
14306;SDS011;7237;49.500;11.400;2023-07-28T01:34:32;4.57;;;3.53;;
14306;SDS011;7237;49.500;11.400;2023-07-28T01:36:59;3.85;;;3.50;;
14306;SDS011;7237;49.500;11.400;2023-07-28T01:39:26;3.92;;;3.15;;
14306;SDS011;7237;49.500;11.400;2023-07-28T01:41:53;5.30;;;3.83;;
14306;SDS011;7237;49.500;11.400;2023-07-28T01:44:21;3.67;;;3.38;;
14306;SDS011;7237;49.500;11.400;2023-07-28T01:46:48;3.63;;;3.33;;
14306;SDS011;7237;49.500;11.400;2023-07-28T01:49:15;5.00;;;3.15;;
14306;SDS011;7237;49.500;11.400;2023-07-28T01:51:43;5.20;;;3.17;;
14306;SDS011;7237;49.500;11.400;2023-07-28T01:54:10;3.85;;;3.20;;
14306;SDS011;7237;49.500;11.400;2023-07-28T01:56:37;3.92;;;3.40;;
14306;SDS011;7237;49.500;11.400;2023-07-28T01:59:04;4.97;;;3.97;;
14306;SDS011;7237;49.500;11.400;2023-07-28T02:01:33;5.05;;;3.78;;
14306;SDS011;7237;49.500;11.400;2023-07-28T02:04:00;4.10;;;3.70;;
14306;SDS011;7237;49.500;11.400;2023-07-28T02:06:27;4.30;;;3.70;;
14306;SDS011;7237;49.500;11.400;2023-07-28T02:08:54;4.35;;;3.65;;
14306;SDS011;7237;49.500;11.400;2023-07-28T02:11:21;3.92;;;3.60;;
14306;SDS011;7237;49.500;11.400;2023-07-28T02:13:48;4.07;;;3.67;;
14306;SDS011;7237;49.500;11.400;2023-07-28T02:16:16;3.75;;;3.40;;
14306;SDS011;7237;49.500;11.400;2023-07-28T02:18:44;3.95;;;3.53;;
14306;SDS011;7237;49.500;11.400;2023-07-28T02:21:11;4.35;;;3.20;;
14306;SDS011;7237;49.500;11.400;2023-07-28T02:23:38;5.13;;;3.40;;
14306;SDS011;7237;49.500;11.400;2023-07-28T02:26:05;3.67;;;3.20;;
14306;SDS011;7237;49.500;11.400;2023-07-28T02:28:32;3.55;;;3.25;;
14306;SDS011;7237;49.500;11.400;2023-07-28T02:30:59;5.32;;;3.83;;
14306;SDS011;7237;49.500;11.400;2023-07-28T02:33:27;4.28;;;3.60;;
14306;SDS011;7237;49.500;11.400;2023-07-28T02:35:58;5.07;;;3.72;;
14306;SDS011;7237;49.500;11.400;2023-07-28T02:38:25;4.35;;;3.53;;
14306;SDS011;7237;49.500;11.400;2023-07-28T02:40:52;5.93;;;3.65;;
14306;SDS011;7237;49.500;11.400;2023-07-28T02:43:19;4.97;;;3.30;;
14306;SDS011;7237;49.500;11.400;2023-07-28T02:45:47;3.63;;;3.33;;
14306;SDS011;7237;49.500;11.400;2023-07-28T02:48:14;4.18;;;3.80;;
14306;SDS011;7237;49.500;11.400;2023-07-28T02:50:45;6.60;;;3.88;;
14306;SDS011;7237;49.500;11.400;2023-07-28T02:53:13;4.47;;;3.22;;
14306;SDS011;7237;49.500;11.400;2023-07-28T02:55:41;4.22;;;3.45;;
14306;SDS011;7237;49.500;11.400;2023-07-28T02:58:08;5.53;;;3.10;;
14306;SDS011;7237;49.500;11.400;2023-07-28T03:00:36;3.10;;;2.80;;
14306;SDS011;7237;49.500;11.400;2023-07-28T03:03:04;6.07;;;2.97;;
14306;SDS011;7237;49.500;11.400;2023-07-28T03:05:31;4.90;;;2.88;;
14306;SDS011;7237;49.500;11.400;2023-07-28T03:07:58;5.88;;;2.83;;
14306;SDS011;7237;49.500;11.400;2023-07-28T03:10:27;2.75;;;2.55;;
14306;SDS011;7237;49.500;11.400;2023-07-28T03:12:54;3.28;;;2.97;;
14306;SDS011;7237;49.500;11.400;2023-07-28T03:15:21;3.15;;;2.78;;
14306;SDS011;7237;49.500;11.400;2023-07-28T03:17:48;2.63;;;2.42;;
14306;SDS011;7237;49.500;11.400;2023-07-28T03:20:16;12.85;;;2.70;;
14306;SDS011;7237;49.500;11.400;2023-07-28T03:22:43;2.67;;;2.47;;
14306;SDS011;7237;49.500;11.400;2023-07-28T03:25:10;2.90;;;2.70;;
14306;SDS011;7237;49.500;11.400;2023-07-28T03:27:39;3.22;;;2.55;;
14306;SDS011;7237;49.500;11.400;2023-07-28T03:30:06;2.78;;;2.47;;
14306;SDS011;7237;49.500;11.400;2023-07-28T03:32:35;3.28;;;2.40;;
14306;SDS011;7237;49.500;11.400;2023-07-28T03:35:02;3.05;;;2.75;;
14306;SDS011;7237;49.500;11.400;2023-07-28T03:37:30;2.90;;;2.60;;
14306;SDS011;7237;49.500;11.400;2023-07-28T03:39:57;2.88;;;2.67;;
14306;SDS011;7237;49.500;11.400;2023-07-28T03:42:24;3.17;;;2.80;;
14306;SDS011;7237;49.500;11.400;2023-07-28T03:44:54;4.22;;;2.90;;
14306;SDS011;7237;49.500;11.400;2023-07-28T03:47:21;5.30;;;3.00;;
14306;SDS011;7237;49.500;11.400;2023-07-28T03:49:48;5.97;;;3.28;;
14306;SDS011;7237;49.500;11.400;2023-07-28T03:52:15;3.90;;;3.42;;
14306;SDS011;7237;49.500;11.400;2023-07-28T03:54:42;5.63;;;3.60;;
14306;SDS011;7237;49.500;11.400;2023-07-28T03:57:09;4.40;;;3.58;;
14306;SDS011;7237;49.500;11.400;2023-07-28T03:59:36;5.63;;;3.72;;
14306;SDS011;7237;49.500;11.400;2023-07-28T04:02:05;4.15;;;3.85;;
14306;SDS011;7237;49.500;11.400;2023-07-28T04:04:32;3.97;;;3.67;;
14306;SDS011;7237;49.500;11.400;2023-07-28T04:06:59;4.45;;;3.92;;
14306;SDS011;7237;49.500;11.400;2023-07-28T04:09:26;5.00;;;3.88;;
14306;SDS011;7237;49.500;11.400;2023-07-28T04:11:53;5.57;;;3.97;;
14306;SDS011;7237;49.500;11.400;2023-07-28T04:14:20;4.40;;;4.00;;
14306;SDS011;7237;49.500;11.400;2023-07-28T04:16:47;6.28;;;4.20;;
14306;SDS011;7237;49.500;11.400;2023-07-28T04:19:16;4.38;;;3.97;;
14306;SDS011;7237;49.500;11.400;2023-07-28T04:21:43;4.78;;;4.00;;
14306;SDS011;7237;49.500;11.400;2023-07-28T04:24:10;4.35;;;4.00;;
14306;SDS011;7237;49.500;11.400;2023-07-28T04:26:38;4.25;;;3.80;;
14306;SDS011;7237;49.500;11.400;2023-07-28T04:29:05;4.28;;;3.85;;
14306;SDS011;7237;49.500;11.400;2023-07-28T04:31:32;7.07;;;4.25;;
14306;SDS011;7237;49.500;11.400;2023-07-28T04:33:59;4.15;;;3.75;;
14306;SDS011;7237;49.500;11.400;2023-07-28T04:36:27;4.63;;;4.15;;
14306;SDS011;7237;49.500;11.400;2023-07-28T04:38:54;5.20;;;4.70;;
14306;SDS011;7237;49.500;11.400;2023-07-28T04:41:21;6.22;;;4.18;;
14306;SDS011;7237;49.500;11.400;2023-07-28T04:43:48;5.35;;;3.97;;
14306;SDS011;7237;49.500;11.400;2023-07-28T04:46:16;5.05;;;4.20;;
14306;SDS011;7237;49.500;11.400;2023-07-28T04:48:43;4.95;;;4.22;;
14306;SDS011;7237;49.500;11.400;2023-07-28T04:51:10;4.68;;;4.28;;
14306;SDS011;7237;49.500;11.400;2023-07-28T04:53:38;4.97;;;4.05;;
14306;SDS011;7237;49.500;11.400;2023-07-28T04:56:05;5.78;;;4.43;;
14306;SDS011;7237;49.500;11.400;2023-07-28T04:58:33;5.63;;;4.22;;
14306;SDS011;7237;49.500;11.400;2023-07-28T05:01:00;6.78;;;3.95;;
14306;SDS011;7237;49.500;11.400;2023-07-28T05:03:27;5.15;;;4.60;;
14306;SDS011;7237;49.500;11.400;2023-07-28T05:05:54;6.00;;;4.38;;
14306;SDS011;7237;49.500;11.400;2023-07-28T05:08:21;7.97;;;4.50;;
14306;SDS011;7237;49.500;11.400;2023-07-28T05:10:50;4.90;;;4.40;;
14306;SDS011;7237;49.500;11.400;2023-07-28T05:13:17;5.85;;;4.63;;
14306;SDS011;7237;49.500;11.400;2023-07-28T05:15:44;5.05;;;4.50;;
14306;SDS011;7237;49.500;11.400;2023-07-28T05:18:11;5.30;;;4.72;;
14306;SDS011;7237;49.500;11.400;2023-07-28T05:20:38;5.38;;;4.88;;
14306;SDS011;7237;49.500;11.400;2023-07-28T05:23:05;5.05;;;4.53;;
14306;SDS011;7237;49.500;11.400;2023-07-28T05:25:32;7.50;;;4.10;;
14306;SDS011;7237;49.500;11.400;2023-07-28T05:28:00;4.10;;;3.75;;
14306;SDS011;7237;49.500;11.400;2023-07-28T05:30:27;4.57;;;4.18;;
14306;SDS011;7237;49.500;11.400;2023-07-28T05:32:55;7.20;;;4.45;;
14306;SDS011;7237;49.500;11.400;2023-07-28T05:35:22;4.22;;;3.90;;
14306;SDS011;7237;49.500;11.400;2023-07-28T05:37:49;7.47;;;4.38;;
14306;SDS011;7237;49.500;11.400;2023-07-28T05:40:16;4.47;;;3.72;;
14306;SDS011;7237;49.500;11.400;2023-07-28T05:42:43;5.38;;;4.03;;
14306;SDS011;7237;49.500;11.400;2023-07-28T05:45:12;5.45;;;4.00;;
14306;SDS011;7237;49.500;11.400;2023-07-28T05:47:39;4.85;;;3.72;;
14306;SDS011;7237;49.500;11.400;2023-07-28T05:50:06;5.15;;;4.13;;
14306;SDS011;7237;49.500;11.400;2023-07-28T05:52:33;4.20;;;3.80;;
14306;SDS011;7237;49.500;11.400;2023-07-28T05:55:00;6.32;;;3.50;;
14306;SDS011;7237;49.500;11.400;2023-07-28T05:57:27;3.72;;;3.42;;
14306;SDS011;7237;49.500;11.400;2023-07-28T05:59:54;5.18;;;3.85;;
14306;SDS011;7237;49.500;11.400;2023-07-28T06:02:23;4.50;;;3.50;;
14306;SDS011;7237;49.500;11.400;2023-07-28T06:04:50;7.50;;;3.90;;
14306;SDS011;7237;49.500;11.400;2023-07-28T06:07:17;3.90;;;3.60;;
14306;SDS011;7237;49.500;11.400;2023-07-28T06:09:44;4.03;;;3.72;;
14306;SDS011;7237;49.500;11.400;2023-07-28T06:12:11;4.55;;;3.58;;
14306;SDS011;7237;49.500;11.400;2023-07-28T06:14:38;3.95;;;3.10;;
14306;SDS011;7237;49.500;11.400;2023-07-28T06:17:05;3.67;;;3.38;;
14306;SDS011;7237;49.500;11.400;2023-07-28T06:19:34;4.07;;;3.30;;
14306;SDS011;7237;49.500;11.400;2023-07-28T06:22:01;4.80;;;3.45;;
14306;SDS011;7237;49.500;11.400;2023-07-28T06:24:29;4.97;;;3.35;;
14306;SDS011;7237;49.500;11.400;2023-07-28T06:26:56;3.70;;;3.40;;
14306;SDS011;7237;49.500;11.400;2023-07-28T06:29:23;6.35;;;3.92;;
14306;SDS011;7237;49.500;11.400;2023-07-28T06:31:50;3.38;;;3.13;;
14306;SDS011;7237;49.500;11.400;2023-07-28T06:34:17;4.32;;;3.47;;
14306;SDS011;7237;49.500;11.400;2023-07-28T06:36:46;3.90;;;3.50;;
14306;SDS011;7237;49.500;11.400;2023-07-28T06:39:12;3.97;;;3.38;;
14306;SDS011;7237;49.500;11.400;2023-07-28T06:41:39;3.47;;;3.17;;
14306;SDS011;7237;49.500;11.400;2023-07-28T06:44:06;3.33;;;3.03;;
14306;SDS011;7237;49.500;11.400;2023-07-28T06:46:34;4.05;;;3.38;;
14306;SDS011;7237;49.500;11.400;2023-07-28T06:49:01;3.55;;;3.25;;
14306;SDS011;7237;49.500;11.400;2023-07-28T06:51:28;3.60;;;3.30;;
14306;SDS011;7237;49.500;11.400;2023-07-28T06:53:57;4.93;;;3.75;;
14306;SDS011;7237;49.500;11.400;2023-07-28T06:56:24;2.92;;;2.72;;
14306;SDS011;7237;49.500;11.400;2023-07-28T06:58:51;4.13;;;3.28;;
14306;SDS011;7237;49.500;11.400;2023-07-28T07:01:18;3.60;;;3.30;;
14306;SDS011;7237;49.500;11.400;2023-07-28T07:03:47;5.97;;;3.55;;
14306;SDS011;7237;49.500;11.400;2023-07-28T07:06:14;3.28;;;3.00;;
14306;SDS011;7237;49.500;11.400;2023-07-28T07:08:42;3.28;;;2.92;;
14306;SDS011;7237;49.500;11.400;2023-07-28T07:11:10;3.78;;;3.38;;
14306;SDS011;7237;49.500;11.400;2023-07-28T07:13:37;4.75;;;3.28;;
14306;SDS011;7237;49.500;11.400;2023-07-28T07:16:04;3.67;;;3.38;;
14306;SDS011;7237;49.500;11.400;2023-07-28T07:18:32;3.97;;;3.58;;
14306;SDS011;7237;49.500;11.400;2023-07-28T07:21:00;4.50;;;3.85;;
14306;SDS011;7237;49.500;11.400;2023-07-28T07:23:28;4.38;;;3.97;;
14306;SDS011;7237;49.500;11.400;2023-07-28T07:25:55;3.75;;;3.40;;
14306;SDS011;7237;49.500;11.400;2023-07-28T07:28:23;4.88;;;3.67;;
14306;SDS011;7237;49.500;11.400;2023-07-28T07:30:50;4.45;;;3.60;;
14306;SDS011;7237;49.500;11.400;2023-07-28T07:33:18;3.50;;;3.20;;
14306;SDS011;7237;49.500;11.400;2023-07-28T07:35:45;3.05;;;2.70;;
14306;SDS011;7237;49.500;11.400;2023-07-28T07:38:12;2.72;;;2.53;;
14306;SDS011;7237;49.500;11.400;2023-07-28T07:40:39;2.20;;;2.10;;
14306;SDS011;7237;49.500;11.400;2023-07-28T07:43:07;2.95;;;2.63;;
14306;SDS011;7237;49.500;11.400;2023-07-28T07:45:35;2.50;;;2.30;;
14306;SDS011;7237;49.500;11.400;2023-07-28T07:48:03;2.72;;;2.53;;
14306;SDS011;7237;49.500;11.400;2023-07-28T07:50:30;2.67;;;2.42;;
14306;SDS011;7237;49.500;11.400;2023-07-28T07:52:57;3.58;;;2.45;;
14306;SDS011;7237;49.500;11.400;2023-07-28T07:55:24;4.45;;;2.55;;
14306;SDS011;7237;49.500;11.400;2023-07-28T07:57:51;2.92;;;2.67;;
14306;SDS011;7237;49.500;11.400;2023-07-28T08:00:18;6.07;;;2.90;;
14306;SDS011;7237;49.500;11.400;2023-07-28T08:02:47;3.17;;;2.72;;
14306;SDS011;7237;49.500;11.400;2023-07-28T08:05:14;2.83;;;2.63;;
14306;SDS011;7237;49.500;11.400;2023-07-28T08:07:41;3.38;;;2.70;;
14306;SDS011;7237;49.500;11.400;2023-07-28T08:10:09;4.95;;;2.75;;
14306;SDS011;7237;49.500;11.400;2023-07-28T08:12:36;5.30;;;2.85;;
14306;SDS011;7237;49.500;11.400;2023-07-28T08:15:03;3.72;;;3.15;;
14306;SDS011;7237;49.500;11.400;2023-07-28T08:17:31;3.78;;;3.00;;
14306;SDS011;7237;49.500;11.400;2023-07-28T08:19:59;3.75;;;2.83;;
14306;SDS011;7237;49.500;11.400;2023-07-28T08:22:26;3.35;;;3.05;;
14306;SDS011;7237;49.500;11.400;2023-07-28T08:24:53;3.30;;;3.00;;
14306;SDS011;7237;49.500;11.400;2023-07-28T08:27:20;3.42;;;3.13;;
14306;SDS011;7237;49.500;11.400;2023-07-28T08:29:49;4.68;;;3.25;;
14306;SDS011;7237;49.500;11.400;2023-07-28T08:32:16;3.13;;;2.83;;
14306;SDS011;7237;49.500;11.400;2023-07-28T08:34:43;3.42;;;3.13;;
14306;SDS011;7237;49.500;11.400;2023-07-28T08:37:11;4.63;;;3.38;;
14306;SDS011;7237;49.500;11.400;2023-07-28T08:39:38;5.15;;;3.33;;
14306;SDS011;7237;49.500;11.400;2023-07-28T08:42:05;5.35;;;3.50;;
14306;SDS011;7237;49.500;11.400;2023-07-28T08:44:33;4.32;;;3.50;;
14306;SDS011;7237;49.500;11.400;2023-07-28T08:47:00;4.53;;;3.20;;
14306;SDS011;7237;49.500;11.400;2023-07-28T08:49:28;3.53;;;3.22;;
14306;SDS011;7237;49.500;11.400;2023-07-28T08:51:58;6.55;;;3.33;;
14306;SDS011;7237;49.500;11.400;2023-07-28T08:54:26;3.67;;;3.38;;
14306;SDS011;7237;49.500;11.400;2023-07-28T08:56:53;8.80;;;3.38;;
14306;SDS011;7237;49.500;11.400;2023-07-28T08:59:21;3.28;;;2.97;;
14306;SDS011;7237;49.500;11.400;2023-07-28T09:01:50;3.90;;;2.95;;
14306;SDS011;7237;49.500;11.400;2023-07-28T09:04:17;3.42;;;3.13;;
14306;SDS011;7237;49.500;11.400;2023-07-28T09:06:45;3.00;;;2.80;;
14306;SDS011;7237;49.500;11.400;2023-07-28T09:09:12;4.97;;;3.10;;
14306;SDS011;7237;49.500;11.400;2023-07-28T09:11:45;5.22;;;3.15;;
14306;SDS011;7237;49.500;11.400;2023-07-28T09:14:12;5.32;;;3.47;;
14306;SDS011;7237;49.500;11.400;2023-07-28T09:16:39;4.13;;;3.10;;
14306;SDS011;7237;49.500;11.400;2023-07-28T09:19:07;3.63;;;3.33;;
14306;SDS011;7237;49.500;11.400;2023-07-28T09:21:34;2.92;;;2.63;;
14306;SDS011;7237;49.500;11.400;2023-07-28T09:24:03;3.80;;;3.20;;
14306;SDS011;7237;49.500;11.400;2023-07-28T09:26:36;3.20;;;2.95;;
14306;SDS011;7237;49.500;11.400;2023-07-28T09:29:11;3.20;;;3.00;;
14306;SDS011;7237;49.500;11.400;2023-07-28T09:31:38;3.20;;;2.90;;
14306;SDS011;7237;49.500;11.400;2023-07-28T09:34:06;3.03;;;2.83;;
14306;SDS011;7237;49.500;11.400;2023-07-28T09:36:34;4.05;;;2.90;;
14306;SDS011;7237;49.500;11.400;2023-07-28T09:39:03;2.97;;;2.78;;
14306;SDS011;7237;49.500;11.400;2023-07-28T09:41:32;4.18;;;2.90;;
14306;SDS011;7237;49.500;11.400;2023-07-28T09:44:01;6.40;;;3.33;;
14306;SDS011;7237;49.500;11.400;2023-07-28T09:46:29;2.90;;;2.70;;
14306;SDS011;7237;49.500;11.400;2023-07-28T09:48:59;4.00;;;3.22;;
14306;SDS011;7237;49.500;11.400;2023-07-28T09:51:27;3.33;;;2.75;;
14306;SDS011;7237;49.500;11.400;2023-07-28T09:53:58;3.17;;;2.97;;
14306;SDS011;7237;49.500;11.400;2023-07-28T09:56:27;6.40;;;3.85;;
14306;SDS011;7237;49.500;11.400;2023-07-28T09:58:55;7.78;;;3.50;;
14306;SDS011;7237;49.500;11.400;2023-07-28T10:01:22;4.72;;;3.90;;
14306;SDS011;7237;49.500;11.400;2023-07-28T10:03:51;4.20;;;3.80;;
14306;SDS011;7237;49.500;11.400;2023-07-28T10:06:18;5.38;;;4.07;;
14306;SDS011;7237;49.500;11.400;2023-07-28T10:08:47;5.40;;;4.90;;
14306;SDS011;7237;49.500;11.400;2023-07-28T10:11:14;6.22;;;5.68;;
14306;SDS011;7237;49.500;11.400;2023-07-28T10:13:42;6.95;;;6.35;;
14306;SDS011;7237;49.500;11.400;2023-07-28T10:16:11;4.90;;;4.50;;
14306;SDS011;7237;49.500;11.400;2023-07-28T10:18:39;3.75;;;3.45;;
14306;SDS011;7237;49.500;11.400;2023-07-28T10:21:09;3.40;;;3.00;;
14306;SDS011;7237;49.500;11.400;2023-07-28T10:23:38;2.80;;;2.60;;
14306;SDS011;7237;49.500;11.400;2023-07-28T10:26:05;2.50;;;2.30;;
14306;SDS011;7237;49.500;11.400;2023-07-28T10:28:33;3.05;;;2.00;;
14306;SDS011;7237;49.500;11.400;2023-07-28T10:31:04;2.67;;;2.13;;
14306;SDS011;7237;49.500;11.400;2023-07-28T10:33:32;1.95;;;1.80;;
14306;SDS011;7237;49.500;11.400;2023-07-28T10:36:10;2.83;;;1.70;;
14306;SDS011;7237;49.500;11.400;2023-07-28T10:38:37;1.90;;;1.80;;
14306;SDS011;7237;49.500;11.400;2023-07-28T10:41:05;7.28;;;2.17;;
14306;SDS011;7237;49.500;11.400;2023-07-28T10:43:33;1.90;;;1.80;;
14306;SDS011;7237;49.500;11.400;2023-07-28T10:46:00;2.25;;;1.77;;
14306;SDS011;7237;49.500;11.400;2023-07-28T10:48:27;1.98;;;1.58;;
14306;SDS011;7237;49.500;11.400;2023-07-28T10:50:54;2.17;;;1.40;;
14306;SDS011;7237;49.500;11.400;2023-07-28T10:53:23;2.42;;;1.92;;
14306;SDS011;7237;49.500;11.400;2023-07-28T10:55:50;1.73;;;1.63;;
14306;SDS011;7237;49.500;11.400;2023-07-28T10:58:17;2.03;;;1.58;;
14306;SDS011;7237;49.500;11.400;2023-07-28T11:00:46;1.98;;;1.65;;
14306;SDS011;7237;49.500;11.400;2023-07-28T11:03:13;1.48;;;1.38;;
14306;SDS011;7237;49.500;11.400;2023-07-28T11:05:40;1.40;;;1.30;;
14306;SDS011;7237;49.500;11.400;2023-07-28T11:08:07;1.17;;;1.17;;
14306;SDS011;7237;49.500;11.400;2023-07-28T11:10:35;2.60;;;1.20;;
14306;SDS011;7237;49.500;11.400;2023-07-28T11:13:02;1.95;;;1.50;;
14306;SDS011;7237;49.500;11.400;2023-07-28T11:15:30;6.47;;;1.10;;
14306;SDS011;7237;49.500;11.400;2023-07-28T11:17:57;1.30;;;1.27;;
14306;SDS011;7237;49.500;11.400;2023-07-28T11:20:25;1.33;;;1.23;;
14306;SDS011;7237;49.500;11.400;2023-07-28T11:22:53;1.40;;;1.30;;
14306;SDS011;7237;49.500;11.400;2023-07-28T11:25:21;1.13;;;1.10;;
14306;SDS011;7237;49.500;11.400;2023-07-28T11:27:50;2.47;;;1.27;;
14306;SDS011;7237;49.500;11.400;2023-07-28T11:30:18;1.27;;;1.17;;
14306;SDS011;7237;49.500;11.400;2023-07-28T11:32:45;1.38;;;1.27;;
14306;SDS011;7237;49.500;11.400;2023-07-28T11:35:14;1.23;;;1.05;;
14306;SDS011;7237;49.500;11.400;2023-07-28T11:37:42;1.10;;;1.00;;
14306;SDS011;7237;49.500;11.400;2023-07-28T11:40:10;0.90;;;0.90;;
14306;SDS011;7237;49.500;11.400;2023-07-28T11:42:37;3.42;;;1.23;;
14306;SDS011;7237;49.500;11.400;2023-07-28T11:45:07;1.10;;;1.00;;
14306;SDS011;7237;49.500;11.400;2023-07-28T11:47:34;1.25;;;1.25;;
14306;SDS011;7237;49.500;11.400;2023-07-28T11:50:02;1.00;;;1.00;;
14306;SDS011;7237;49.500;11.400;2023-07-28T11:52:30;1.00;;;1.00;;
14306;SDS011;7237;49.500;11.400;2023-07-28T11:54:57;2.75;;;1.20;;
14306;SDS011;7237;49.500;11.400;2023-07-28T11:57:25;1.42;;;1.10;;
14306;SDS011;7237;49.500;11.400;2023-07-28T11:59:53;0.93;;;0.93;;
14306;SDS011;7237;49.500;11.400;2023-07-28T12:02:25;1.25;;;1.13;;
14306;SDS011;7237;49.500;11.400;2023-07-28T12:04:52;1.17;;;1.00;;
14306;SDS011;7237;49.500;11.400;2023-07-28T12:07:26;1.08;;;1.08;;
14306;SDS011;7237;49.500;11.400;2023-07-28T12:09:54;1.80;;;1.15;;
14306;SDS011;7237;49.500;11.400;2023-07-28T12:12:25;7.85;;;1.50;;
14306;SDS011;7237;49.500;11.400;2023-07-28T12:14:53;1.10;;;1.10;;
14306;SDS011;7237;49.500;11.400;2023-07-28T12:17:21;1.88;;;1.17;;
14306;SDS011;7237;49.500;11.400;2023-07-28T12:20:01;1.45;;;1.13;;
14306;SDS011;7237;49.500;11.400;2023-07-28T12:22:35;1.25;;;1.00;;
14306;SDS011;7237;49.500;11.400;2023-07-28T12:25:02;1.98;;;1.05;;
14306;SDS011;7237;49.500;11.400;2023-07-28T12:27:29;0.75;;;0.75;;
14306;SDS011;7237;49.500;11.400;2023-07-28T12:29:56;1.00;;;1.00;;
14306;SDS011;7237;49.500;11.400;2023-07-28T12:32:24;1.00;;;1.00;;
14306;SDS011;7237;49.500;11.400;2023-07-28T12:34:51;1.02;;;1.00;;
14306;SDS011;7237;49.500;11.400;2023-07-28T12:37:19;1.95;;;1.00;;
14306;SDS011;7237;49.500;11.400;2023-07-28T12:39:47;1.17;;;1.10;;
14306;SDS011;7237;49.500;11.400;2023-07-28T12:42:14;1.10;;;1.00;;
14306;SDS011;7237;49.500;11.400;2023-07-28T12:44:41;1.13;;;0.88;;
14306;SDS011;7237;49.500;11.400;2023-07-28T12:47:08;2.05;;;1.00;;
14306;SDS011;7237;49.500;11.400;2023-07-28T12:49:35;1.00;;;1.00;;
14306;SDS011;7237;49.500;11.400;2023-07-28T12:52:04;1.00;;;1.00;;
14306;SDS011;7237;49.500;11.400;2023-07-28T12:54:33;0.88;;;0.82;;
14306;SDS011;7237;49.500;11.400;2023-07-28T12:57:00;1.20;;;1.10;;
14306;SDS011;7237;49.500;11.400;2023-07-28T12:59:27;1.00;;;1.00;;
14306;SDS011;7237;49.500;11.400;2023-07-28T13:01:54;0.80;;;0.80;;
14306;SDS011;7237;49.500;11.400;2023-07-28T13:04:21;0.80;;;0.80;;
14306;SDS011;7237;49.500;11.400;2023-07-28T13:06:49;1.00;;;1.00;;
14306;SDS011;7237;49.500;11.400;2023-07-28T13:09:16;0.88;;;0.88;;
14306;SDS011;7237;49.500;11.400;2023-07-28T13:11:44;1.10;;;1.00;;
14306;SDS011;7237;49.500;11.400;2023-07-28T13:14:11;1.23;;;1.10;;
14306;SDS011;7237;49.500;11.400;2023-07-28T13:16:38;1.00;;;0.90;;
14306;SDS011;7237;49.500;11.400;2023-07-28T13:19:05;1.13;;;0.98;;
14306;SDS011;7237;49.500;11.400;2023-07-28T13:21:32;1.02;;;0.90;;
14306;SDS011;7237;49.500;11.400;2023-07-28T13:24:00;1.10;;;1.00;;
14306;SDS011;7237;49.500;11.400;2023-07-28T13:26:28;0.98;;;0.88;;
14306;SDS011;7237;49.500;11.400;2023-07-28T13:28:57;0.85;;;0.85;;
14306;SDS011;7237;49.500;11.400;2023-07-28T13:31:26;0.90;;;0.90;;
14306;SDS011;7237;49.500;11.400;2023-07-28T13:33:53;0.98;;;0.80;;
14306;SDS011;7237;49.500;11.400;2023-07-28T13:36:20;0.90;;;0.90;;
14306;SDS011;7237;49.500;11.400;2023-07-28T13:38:47;1.50;;;0.90;;
14306;SDS011;7237;49.500;11.400;2023-07-28T13:41:15;0.75;;;0.75;;
14306;SDS011;7237;49.500;11.400;2023-07-28T13:43:42;1.58;;;0.90;;
14306;SDS011;7237;49.500;11.400;2023-07-28T13:46:10;1.02;;;1.00;;
14306;SDS011;7237;49.500;11.400;2023-07-28T13:48:38;1.20;;;1.05;;
14306;SDS011;7237;49.500;11.400;2023-07-28T13:51:05;0.80;;;0.80;;
14306;SDS011;7237;49.500;11.400;2023-07-28T13:53:32;1.30;;;1.20;;
14306;SDS011;7237;49.500;11.400;2023-07-28T13:56:00;1.20;;;1.00;;
14306;SDS011;7237;49.500;11.400;2023-07-28T13:58:27;1.13;;;1.10;;
14306;SDS011;7237;49.500;11.400;2023-07-28T14:00:54;0.90;;;0.90;;
14306;SDS011;7237;49.500;11.400;2023-07-28T14:03:22;2.03;;;1.00;;
14306;SDS011;7237;49.500;11.400;2023-07-28T14:05:49;1.00;;;0.90;;
14306;SDS011;7237;49.500;11.400;2023-07-28T14:08:16;1.00;;;1.00;;
14306;SDS011;7237;49.500;11.400;2023-07-28T14:10:44;1.60;;;0.82;;
14306;SDS011;7237;49.500;11.400;2023-07-28T14:13:11;0.85;;;0.85;;
14306;SDS011;7237;49.500;11.400;2023-07-28T14:15:38;1.02;;;1.00;;
14306;SDS011;7237;49.500;11.400;2023-07-28T14:18:05;1.30;;;1.08;;
14306;SDS011;7237;49.500;11.400;2023-07-28T14:20:33;1.05;;;1.05;;
14306;SDS011;7237;49.500;11.400;2023-07-28T14:23:01;1.33;;;0.90;;
14306;SDS011;7237;49.500;11.400;2023-07-28T14:25:28;2.97;;;1.00;;
14306;SDS011;7237;49.500;11.400;2023-07-28T14:27:55;0.68;;;0.68;;
14306;SDS011;7237;49.500;11.400;2023-07-28T14:30:22;1.05;;;0.95;;
14306;SDS011;7237;49.500;11.400;2023-07-28T14:32:49;1.00;;;1.00;;
14306;SDS011;7237;49.500;11.400;2023-07-28T14:35:16;0.90;;;0.90;;
14306;SDS011;7237;49.500;11.400;2023-07-28T14:37:45;1.15;;;0.95;;
14306;SDS011;7237;49.500;11.400;2023-07-28T14:40:13;1.02;;;1.02;;
14306;SDS011;7237;49.500;11.400;2023-07-28T14:42:41;0.90;;;0.90;;
14306;SDS011;7237;49.500;11.400;2023-07-28T14:45:08;1.25;;;1.10;;
14306;SDS011;7237;49.500;11.400;2023-07-28T14:47:35;0.98;;;0.98;;
14306;SDS011;7237;49.500;11.400;2023-07-28T14:50:02;0.95;;;0.95;;